Time;durP1;ratioP1;P1;durP2;ratioP2;P2;SDS_P1;SDS_P2;PMS_P1;PMS_P2;Temp;Humidity;BMP_temperature;BMP_pressure;BME280_temperature;BME280_humidity;BME280_pressure;Samples;Min_cycle;Max_cycle;Signal;HPM_P1;HPM_P2
2021/06/15 00:01:45;;;;;;;22.20;9.02;;;;;;;14.90;100.00;100855.66;4962404;28;20550;-88
2021/06/15 00:04:10;;;;;;;22.15;9.02;;;;;;;14.84;100.00;100855.84;4978600;28;20127;-88
2021/06/15 00:06:35;;;;;;;18.42;7.85;;;;;;;14.85;100.00;100854.94;4978151;28;20059;-88
2021/06/15 00:09:00;;;;;;;18.05;7.63;;;;;;;14.87;100.00;100862.72;4977877;28;20121;-89
2021/06/15 00:11:26;;;;;;;21.10;6.93;;;;;;;14.85;100.00;100861.91;4961584;28;20073;-89
2021/06/15 00:13:52;;;;;;;15.32;7.13;;;;;;;14.74;100.00;100857.00;4977662;28;20403;-88
2021/06/15 00:16:17;;;;;;;16.45;6.53;;;;;;;14.74;100.00;100855.25;4977732;28;20113;-89
2021/06/15 00:18:42;;;;;;;19.88;6.10;;;;;;;14.73;100.00;100850.09;4978152;28;20019;-88
2021/06/15 00:21:07;;;;;;;15.20;6.20;;;;;;;14.70;100.00;100853.66;4980923;28;20041;-89
2021/06/15 00:23:33;;;;;;;18.63;6.55;;;;;;;14.68;100.00;100855.44;4963823;28;20026;-88
2021/06/15 00:25:58;;;;;;;16.88;6.53;;;;;;;14.73;100.00;100850.09;4979874;28;20093;-88
2021/06/15 00:28:23;;;;;;;16.27;6.40;;;;;;;14.66;100.00;100848.59;4961671;28;20022;-88
2021/06/15 00:30:48;;;;;;;16.67;6.40;;;;;;;14.63;100.00;100854.75;4980047;28;20078;-89
2021/06/15 00:36:35;;;;;;;17.67;6.22;;;;;;;14.57;100.00;100864.53;4978348;28;20065;-88
2021/06/15 00:39:01;;;;;;;13.73;5.50;;;;;;;14.58;100.00;100867.06;4976510;28;20067;-88
2021/06/15 00:41:26;;;;;;;23.48;5.95;;;;;;;14.58;100.00;100858.38;4977821;28;20419;-88
2021/06/15 00:43:51;;;;;;;17.17;5.85;;;;;;;14.57;100.00;100854.94;4976824;28;20023;-88
2021/06/15 00:46:17;;;;;;;19.33;5.50;;;;;;;14.63;100.00;100854.75;4976343;28;20027;-88
2021/06/15 00:48:43;;;;;;;15.68;5.85;;;;;;;14.53;100.00;100858.50;4960474;28;20026;-88
2021/06/15 00:51:09;;;;;;;16.92;5.50;;;;;;;14.52;100.00;100854.19;4978053;28;20475;-88
2021/06/15 00:53:36;;;;;;;19.40;5.45;;;;;;;14.51;100.00;100857.72;4961427;28;20027;-88
2021/06/15 00:56:02;;;;;;;14.73;6.30;;;;;;;14.50;100.00;100864.66;4961306;28;20453;-88
2021/06/15 00:58:27;;;;;;;14.63;5.82;;;;;;;14.57;100.00;100877.56;4960862;28;20019;-88
2021/06/15 01:00:53;;;;;;;16.80;5.97;;;;;;;14.56;100.00;100866.25;4976474;28;20031;-88
2021/06/15 01:03:21;;;;;;;16.90;5.80;;;;;;;14.46;100.00;100862.19;4976538;28;20033;-88
2021/06/15 01:05:47;;;;;;;16.42;5.55;;;;;;;14.46;100.00;100864.78;4961425;28;20033;-88
2021/06/15 01:09:03;;;;;;;14.45;5.68;;;;;;;14.41;100.00;100874.50;4977935;28;20034;-88
2021/06/15 01:11:50;;;;;;;13.70;4.97;;;;;;;14.43;100.00;100873.56;4899877;29;20053;-88
2021/06/15 01:14:38;;;;;;;15.65;4.82;;;;;;;14.39;100.00;100871.09;4955410;28;20074;-89
2021/06/15 01:17:12;;;;;;;18.00;5.30;;;;;;;14.33;100.00;100874.72;4976210;28;20031;-89
2021/06/15 01:19:58;;;;;;;21.30;4.97;;;;;;;14.35;100.00;100867.72;4960372;28;20462;-88
2021/06/15 01:22:39;;;;;;;17.60;4.95;;;;;;;14.38;100.00;100872.84;4960862;28;20494;-88
2021/06/15 01:25:15;;;;;;;17.58;5.10;;;;;;;14.21;100.00;100868.09;4960716;28;20026;-88
2021/06/15 01:27:42;;;;;;;14.77;5.22;;;;;;;14.22;100.00;100867.22;4977954;28;20477;-88
2021/06/15 01:30:14;;;;;;;15.93;4.80;;;;;;;14.24;100.00;100869.78;4962188;28;20058;-88
2021/06/15 01:32:42;;;;;;;18.50;5.30;;;;;;;14.23;100.00;100865.47;4962837;28;20030;-88
2021/06/15 01:35:09;;;;;;;17.27;4.90;;;;;;;14.23;100.00;100858.50;4978908;28;20046;-88
2021/06/15 01:37:43;;;;;;;17.65;4.88;;;;;;;14.24;100.00;100859.34;4961589;28;20384;-88
2021/06/15 01:40:14;;;;;;;18.83;4.57;;;;;;;14.23;100.00;100870.69;4961173;28;20487;-88
2021/06/15 01:42:40;;;;;;;18.58;5.15;;;;;;;14.20;100.00;100861.19;4977202;28;20084;-88
2021/06/15 01:45:07;;;;;;;13.70;4.30;;;;;;;14.23;100.00;100860.25;4959076;28;20444;-88
2021/06/15 01:47:36;;;;;;;16.08;4.43;;;;;;;14.18;100.00;100854.28;4976249;28;20495;-88
2021/06/15 01:50:04;;;;;;;18.65;5.13;;;;;;;14.21;100.00;100862.88;4959409;28;20390;-88
2021/06/15 01:52:34;;;;;;;15.63;4.38;;;;;;;14.21;100.00;100856.81;4958944;28;20031;-88
2021/06/15 01:55:01;;;;;;;15.32;4.25;;;;;;;14.08;100.00;100858.91;4959071;28;20499;-88
2021/06/15 01:57:27;;;;;;;16.30;4.18;;;;;;;14.18;100.00;100860.38;4976648;28;20030;-88
2021/06/15 01:59:57;;;;;;;16.67;5.50;;;;;;;14.08;100.00;100864.13;4958862;28;20022;-88
2021/06/15 02:02:23;;;;;;;17.90;4.43;;;;;;;14.13;100.00;100866.59;4959048;28;20030;-88
2021/06/15 02:04:52;;;;;;;19.48;5.10;;;;;;;14.05;100.00;100875.50;4958825;28;20078;-88
2021/06/15 02:07:23;;;;;;;13.70;4.70;;;;;;;14.10;100.00;100871.91;4959067;28;20027;-88
2021/06/15 02:09:52;;;;;;;16.92;4.90;;;;;;;14.11;100.00;100879.72;4959197;28;20028;-88
2021/06/15 02:12:20;;;;;;;17.77;4.75;;;;;;;14.13;100.00;100874.44;4958644;28;20491;-88
2021/06/15 02:14:46;;;;;;;21.75;5.13;;;;;;;14.12;100.00;100883.16;4974519;28;20558;-88
2021/06/15 02:17:14;;;;;;;14.40;4.78;;;;;;;14.14;100.00;100887.44;4974729;28;20069;-88
2021/06/15 02:19:42;;;;;;;18.20;5.28;;;;;;;14.09;100.00;100893.69;4975764;28;20027;-88
2021/06/15 02:22:12;;;;;;;16.42;5.70;;;;;;;14.07;100.00;100901.56;4958611;28;20027;-88
2021/06/15 02:24:45;;;;;;;17.15;5.15;;;;;;;14.04;100.00;100914.69;4958328;28;20030;-88
2021/06/15 02:27:16;;;;;;;22.08;5.68;;;;;;;14.02;100.00;100912.09;4975654;28;20037;-88
2021/06/15 02:29:42;;;;;;;19.25;5.03;;;;;;;13.99;100.00;100912.19;4958401;28;20027;-87
2021/06/15 02:32:09;;;;;;;18.50;5.47;;;;;;;13.99;100.00;100917.41;4959131;28;20037;-88
2021/06/15 02:34:37;;;;;;;14.18;4.95;;;;;;;14.05;100.00;100916.38;4958814;28;20486;-88
2021/06/15 02:37:06;;;;;;;17.92;5.47;;;;;;;14.00;100.00;100931.28;4958305;28;20033;-88
2021/06/15 02:39:36;;;;;;;17.88;5.03;;;;;;;13.97;100.00;100926.16;4974345;28;20094;-88
2021/06/15 02:42:06;;;;;;;15.90;4.30;;;;;;;13.94;100.00;100929.69;4975579;28;20557;-88
2021/06/15 02:44:35;;;;;;;16.02;4.50;;;;;;;13.94;100.00;100936.66;4974342;28;20030;-88
2021/06/15 02:47:03;;;;;;;17.80;4.53;;;;;;;14.00;100.00;100926.06;4959536;28;20121;-88
2021/06/15 02:49:31;;;;;;;15.60;4.15;;;;;;;13.91;100.00;100929.78;4976323;28;20026;-89
2021/06/15 02:52:12;;;;;;;13.13;3.72;;;;;;;13.89;100.00;100922.91;4976246;28;20367;-88
2021/06/15 02:54:45;;;;;;;15.75;3.97;;;;;;;13.93;100.00;100929.75;4977576;28;20101;-89
2021/06/15 02:57:12;;;;;;;16.50;4.25;;;;;;;13.91;100.00;100932.38;4959374;28;20490;-89
2021/06/15 02:59:38;;;;;;;13.65;4.05;;;;;;;13.93;100.00;100925.38;4958936;28;20034;-88
2021/06/15 03:02:03;;;;;;;14.90;4.03;;;;;;;13.87;100.00;100928.16;4975169;28;20026;-88
2021/06/15 03:04:29;;;;;;;19.95;4.93;;;;;;;13.72;100.00;100928.53;4958511;28;20031;-89
2021/06/15 03:06:54;;;;;;;15.45;3.70;;;;;;;13.88;100.00;100939.44;4959924;28;20066;-89
2021/06/15 03:09:20;;;;;;;19.27;3.80;;;;;;;13.78;100.00;100931.84;4977876;28;20026;-89
2021/06/15 03:11:55;;;;;;;16.50;4.20;;;;;;;13.79;100.00;100933.59;4976394;28;20027;-88
2021/06/15 03:14:20;;;;;;;17.20;4.25;;;;;;;13.87;100.00;100935.13;4976772;28;20070;-89
2021/06/15 03:16:45;;;;;;;14.70;3.90;;;;;;;13.82;100.00;100943.03;4959208;28;20030;-88
2021/06/15 03:19:22;;;;;;;11.05;3.50;;;;;;;13.84;100.00;100941.28;4976293;28;20497;-88
2021/06/15 03:22:03;;;;;;;19.88;4.00;;;;;;;13.87;100.00;100954.22;4959496;28;20022;-88
2021/06/15 03:24:31;;;;;;;13.05;3.83;;;;;;;13.82;100.00;100950.88;5025176;23;20077;-84
2021/06/15 03:27:09;;;;;;;14.88;3.53;;;;;;;13.75;100.00;100954.53;4996432;28;20025;-84
2021/06/15 03:29:36;;;;;;;15.20;3.25;;;;;;;13.76;100.00;100956.25;4996177;28;20109;-84
2021/06/15 03:32:07;;;;;;;15.57;3.08;;;;;;;13.81;100.00;100954.38;4995902;28;20405;-84
2021/06/15 03:34:35;;;;;;;10.90;3.03;;;;;;;13.84;100.00;100954.31;5014102;28;20022;-84
2021/06/15 03:37:02;;;;;;;13.60;2.78;;;;;;;13.88;100.00;100962.91;4996256;28;20029;-84
2021/06/15 03:39:30;;;;;;;14.20;3.03;;;;;;;13.77;100.00;100961.44;4996163;28;20022;-84
2021/06/15 03:41:58;;;;;;;17.38;3.33;;;;;;;13.59;100.00;100962.72;4995997;28;20505;-84
2021/06/15 03:44:24;;;;;;;13.07;3.10;;;;;;;13.76;100.00;100967.56;4995871;28;20073;-84
2021/06/15 03:46:55;;;;;;;13.57;3.00;;;;;;;13.86;100.00;100965.56;4996177;28;20022;-84
2021/06/15 03:49:22;;;;;;;15.40;3.90;;;;;;;13.80;100.00;100958.75;5014436;28;20021;-84
2021/06/15 03:51:53;;;;;;;15.05;3.58;;;;;;;13.79;100.00;100971.81;4995789;28;20028;-84
2021/06/15 03:54:20;;;;;;;13.95;2.83;;;;;;;13.69;100.00;100965.97;4995922;28;20105;-84
2021/06/15 03:56:48;;;;;;;14.90;2.95;;;;;;;13.74;100.00;100966.72;4995850;28;20397;-84
2021/06/15 03:59:18;;;;;;;13.05;3.03;;;;;;;13.73;100.00;100961.53;4996019;28;20026;-84
2021/06/15 04:01:45;;;;;;;16.38;3.10;;;;;;;13.77;100.00;100958.81;4995465;28;20030;-85
2021/06/15 04:04:15;;;;;;;9.80;2.88;;;;;;;13.74;100.00;100958.06;5012961;28;20058;-85
2021/06/15 04:06:46;;;;;;;12.52;3.45;;;;;;;13.67;100.00;100965.16;4995608;28;20482;-85
2021/06/15 04:09:13;;;;;;;16.48;3.15;;;;;;;13.67;100.00;100979.94;4996422;28;20021;-85
2021/06/15 04:11:41;;;;;;;10.52;2.90;;;;;;;13.68;100.00;100977.31;4995250;28;20032;-85
2021/06/15 04:14:10;;;;;;;17.52;3.40;;;;;;;13.68;100.00;100973.84;5012823;28;20513;-85
2021/06/15 04:16:37;;;;;;;9.93;2.92;;;;;;;13.68;100.00;100984.28;4995222;28;20030;-85
2021/06/15 04:19:06;;;;;;;10.63;2.65;;;;;;;13.70;100.00;100978.13;5012853;28;20095;-84
2021/06/15 04:21:34;;;;;;;13.13;2.75;;;;;;;13.62;100.00;100984.41;4995224;28;20029;-84
2021/06/15 04:24:08;;;;;;;11.52;3.00;;;;;;;13.62;100.00;100982.66;5012901;28;20033;-84
2021/06/15 04:26:34;;;;;;;13.30;3.05;;;;;;;13.56;100.00;100986.25;4995566;28;20029;-84
2021/06/15 04:29:02;;;;;;;12.52;2.78;;;;;;;13.48;100.00;101001.22;4995510;28;20017;-84
2021/06/15 04:31:30;;;;;;;10.23;2.28;;;;;;;13.50;100.00;101006.41;4995562;28;20173;-84
2021/06/15 04:33:58;;;;;;;15.77;3.13;;;;;;;13.51;100.00;101008.97;5013028;28;20026;-84
2021/06/15 04:36:23;;;;;;;16.25;3.35;;;;;;;13.42;100.00;101013.53;4997332;28;20026;-84
2021/06/15 04:38:54;;;;;;;13.55;2.58;;;;;;;13.48;100.00;101019.44;4998903;28;20029;-84
2021/06/15 04:41:25;;;;;;;16.05;2.65;;;;;;;13.46;100.00;101023.88;4999097;28;20485;-84
2021/06/15 04:44:10;;;;;;;11.52;3.10;;;;;;;13.49;100.00;101021.19;4999287;28;20026;-84
2021/06/15 04:46:49;;;;;;;11.10;2.50;;;;;;;13.47;100.00;101027.31;4999125;28;20037;-84
2021/06/15 04:49:47;;;;;;;14.93;2.90;;;;;;;13.57;100.00;101024.44;4998987;28;20539;-85
2021/06/15 04:52:15;;;;;;;13.68;2.75;;;;;;;13.67;100.00;101022.53;4999026;28;20038;-85
2021/06/15 04:54:46;;;;;;;13.40;2.60;;;;;;;13.49;100.00;101013.38;4998915;28;20029;-84
2021/06/15 04:57:17;;;;;;;13.23;2.47;;;;;;;13.42;100.00;101018.75;4998449;28;20026;-84
2021/06/15 04:59:45;;;;;;;13.98;2.47;;;;;;;13.51;100.00;101027.19;5016018;28;20033;-84
2021/06/15 05:02:11;;;;;;;16.20;3.50;;;;;;;13.43;100.00;101015.25;4998577;28;20026;-84
2021/06/15 05:04:38;;;;;;;14.93;2.95;;;;;;;13.46;100.00;101002.16;5015908;28;20033;-85
2021/06/15 05:07:04;;;;;;;14.48;2.70;;;;;;;13.46;100.00;100996.94;5017027;28;20021;-85
2021/06/15 05:09:32;;;;;;;9.23;2.45;;;;;;;13.40;100.00;100992.75;5016617;28;20072;-85
2021/06/15 05:11:58;;;;;;;11.35;2.58;;;;;;;13.47;100.00;101002.13;4998505;28;20025;-85
2021/06/15 05:14:29;;;;;;;11.07;3.05;;;;;;;13.68;100.00;101015.53;4998237;28;20026;-85
2021/06/15 05:16:56;;;;;;;11.77;2.53;;;;;;;13.64;100.00;101019.09;4998524;28;20116;-85
2021/06/15 05:19:23;;;;;;;12.93;2.83;;;;;;;13.73;100.00;101029.31;4997819;28;20025;-84
2021/06/15 05:21:56;;;;;;;12.63;2.90;;;;;;;13.78;100.00;101027.47;4998367;28;20524;-84
2021/06/15 05:24:45;;;;;;;14.52;3.13;;;;;;;13.86;100.00;101029.91;5015300;28;20092;-85
2021/06/15 05:27:10;;;;;;;13.65;2.97;;;;;;;13.96;100.00;101024.41;4998030;28;20497;-84
2021/06/15 05:29:36;;;;;;;15.05;2.50;;;;;;;13.86;100.00;101030.75;4998087;28;20030;-85
2021/06/15 05:32:03;;;;;;;23.90;2.53;;;;;;;13.96;100.00;101039.19;4998156;28;20513;-86
2021/06/15 05:34:28;;;;;;;8.40;2.13;;;;;;;13.98;100.00;101048.72;4997902;28;20025;-84
2021/06/15 05:36:54;;;;;;;9.38;2.22;;;;;;;13.98;100.00;101048.72;4998341;28;20073;-85
2021/06/15 05:39:19;;;;;;;10.50;2.67;;;;;;;14.13;100.00;101044.88;4997909;28;20046;-85
2021/06/15 05:41:44;;;;;;;14.18;3.17;;;;;;;14.24;100.00;101049.81;5015617;28;20474;-85
2021/06/15 05:44:09;;;;;;;12.38;2.88;;;;;;;14.33;100.00;101044.34;4998439;28;20076;-84
2021/06/15 05:46:35;;;;;;;10.85;2.40;;;;;;;14.11;99.98;101053.63;4997835;28;20022;-86
2021/06/15 05:49:00;;;;;;;10.63;2.47;;;;;;;14.24;100.00;101047.19;5037913;28;20045;-84
2021/06/15 05:51:26;;;;;;;10.73;2.53;;;;;;;14.64;98.10;101047.03;5023275;28;20017;-83
2021/06/15 05:53:51;;;;;;;13.85;2.85;;;;;;;14.61;97.18;101041.03;5015660;28;20498;-84
2021/06/15 05:56:17;;;;;;;15.02;2.65;;;;;;;14.95;95.44;101057.47;4998411;28;20036;-83
2021/06/15 05:58:42;;;;;;;13.60;2.50;;;;;;;14.89;94.01;101060.25;4997519;28;20033;-84
2021/06/15 06:01:07;;;;;;;9.60;2.65;;;;;;;14.97;92.14;101054.84;4997981;28;20524;-83
2021/06/15 06:03:34;;;;;;;7.88;2.17;;;;;;;15.11;91.88;101057.88;4997946;28;20026;-84
2021/06/15 06:08:43;;;;;;;8.93;2.40;;;;;;;15.18;92.06;101059.44;5017191;28;20093;-84
2021/06/15 06:11:09;;;;;;;11.45;2.85;;;;;;;15.51;89.14;101067.16;5016713;28;20061;-84
2021/06/15 06:13:35;;;;;;;12.70;2.75;;;;;;;15.53;87.19;101061.91;4999160;28;20044;-84
2021/06/15 06:16:05;;;;;;;13.02;2.45;;;;;;;15.45;88.37;101066.50;4998971;28;20018;-84
2021/06/15 06:18:31;;;;;;;9.77;2.10;;;;;;;15.34;89.31;101065.06;4999080;28;20018;-84
2021/06/15 06:20:57;;;;;;;11.70;2.60;;;;;;;15.53;86.30;101070.59;5015737;28;20545;-84
2021/06/15 06:23:22;;;;;;;9.80;2.08;;;;;;;15.95;85.30;101074.53;4998249;28;20046;-84
2021/06/15 06:25:47;;;;;;;11.60;2.20;;;;;;;16.37;82.42;101074.03;4998674;28;20030;-84
2021/06/15 06:28:12;;;;;;;9.35;2.20;;;;;;;16.38;80.86;101076.63;5016776;28;20025;-84
2021/06/15 06:30:38;;;;;;;13.13;2.97;;;;;;;16.74;78.65;101073.59;4999249;28;20025;-84
2021/06/15 06:33:03;;;;;;;11.70;2.80;;;;;;;16.88;77.92;101081.03;4998601;28;20026;-84
2021/06/15 06:35:29;;;;;;;14.98;2.50;;;;;;;16.96;75.41;101076.34;5015745;28;20091;-84
2021/06/15 06:37:54;;;;;;;10.50;2.13;;;;;;;16.89;75.65;101082.72;4998620;28;20039;-84
2021/06/15 06:40:20;;;;;;;8.30;1.88;;;;;;;16.31;77.32;101090.81;4998136;28;20502;-84
2021/06/15 06:42:45;;;;;;;16.98;3.03;;;;;;;16.27;79.07;101102.28;4997476;28;20060;-84
2021/06/15 06:45:11;;;;;;;10.05;1.73;;;;;;;16.52;77.19;101102.31;4996879;28;20030;-84
2021/06/15 06:47:37;;;;;;;9.55;1.70;;;;;;;17.08;75.00;101104.72;4997041;28;20058;-85
2021/06/15 06:50:04;;;;;;;9.63;1.90;;;;;;;18.15;68.88;101111.09;4997030;28;20125;-85
2021/06/15 06:52:30;;;;;;;10.10;1.67;;;;;;;18.91;67.61;101116.69;4996741;28;20021;-84
2021/06/15 06:54:56;;;;;;;8.05;1.67;;;;;;;19.83;63.45;101115.13;5014997;28;20026;-84
2021/06/15 06:57:21;;;;;;;8.95;2.00;;;;;;;19.68;59.74;101106.19;5016227;28;20105;-84
2021/06/15 06:59:46;;;;;;;7.35;1.92;;;;;;;18.09;65.05;101113.13;4998686;28;20034;-84
2021/06/15 07:02:11;;;;;;;11.25;1.80;;;;;;;16.94;71.46;101118.34;5016560;28;20025;-84
2021/06/15 07:04:37;;;;;;;7.70;1.70;;;;;;;16.74;69.94;101120.75;4998110;28;20395;-84
2021/06/15 07:07:03;;;;;;;8.75;2.25;;;;;;;16.62;71.16;101121.19;4998554;28;20124;-84
2021/06/15 07:09:28;;;;;;;7.30;1.77;;;;;;;16.16;71.96;101125.34;4998386;28;20029;-84
2021/06/15 07:11:54;;;;;;;6.28;1.23;;;;;;;16.06;69.96;101120.41;4998826;28;20029;-85
2021/06/15 07:14:19;;;;;;;10.70;2.40;;;;;;;16.14;70.47;101122.78;5015849;28;20125;-84
2021/06/15 07:16:44;;;;;;;10.20;2.15;;;;;;;16.34;70.06;101122.13;5016068;28;20113;-84
2021/06/15 07:19:10;;;;;;;13.05;1.75;;;;;;;17.83;66.71;101120.28;4997594;28;20057;-84
2021/06/15 07:21:35;;;;;;;8.77;1.65;;;;;;;19.57;60.72;101115.47;4996556;28;20112;-84
2021/06/15 07:24:00;;;;;;;7.10;1.30;;;;;;;19.55;58.54;101119.03;4999250;28;20033;-84
2021/06/15 07:26:26;;;;;;;10.25;1.90;;;;;;;20.82;56.43;101119.88;4997350;28;20393;-83
2021/06/15 07:28:51;;;;;;;5.47;1.20;;;;;;;20.13;56.96;101120.66;5017078;28;20032;-85
2021/06/15 07:31:16;;;;;;;8.75;1.55;;;;;;;19.92;57.75;101108.53;5000595;28;20026;-83
2021/06/15 07:33:42;;;;;;;8.25;2.22;;;;;;;19.01;60.42;101123.25;5001275;28;20399;-83
2021/06/15 07:36:07;;;;;;;11.10;1.80;;;;;;;18.76;61.15;101127.88;5019530;28;20105;-82
2021/06/15 07:38:32;;;;;;;10.40;1.80;;;;;;;19.02;60.36;101114.44;5019306;28;20030;-82
2021/06/15 07:40:57;;;;;;;8.13;1.50;;;;;;;18.76;62.14;101122.63;5019543;28;20029;-82
2021/06/15 07:43:23;;;;;;;9.73;1.75;;;;;;;19.05;58.95;101110.81;5001543;28;20808;-82
2021/06/15 07:45:49;;;;;;;8.43;1.35;;;;;;;18.25;62.69;101118.59;5002193;28;20493;-82
2021/06/15 07:48:14;;;;;;;10.13;1.65;;;;;;;18.63;60.78;101122.25;5001595;28;20018;-82
2021/06/15 07:50:39;;;;;;;12.07;1.85;;;;;;;18.82;58.99;101127.63;5018888;28;20105;-82
2021/06/15 07:53:05;;;;;;;8.27;1.60;;;;;;;19.04;58.02;101131.00;5001500;28;20121;-82
2021/06/15 07:55:30;;;;;;;9.23;2.05;;;;;;;19.80;56.84;101120.53;5001711;28;20117;-82
2021/06/15 07:57:55;;;;;;;14.52;1.88;;;;;;;20.56;53.62;101117.72;5001318;28;20025;-83
2021/06/15 08:00:21;;;;;;;9.88;1.60;;;;;;;20.34;55.20;101113.50;5000618;28;20072;-83
2021/06/15 08:02:47;;;;;;;6.97;1.58;;;;;;;20.71;51.32;101113.44;4999963;28;20048;-83
2021/06/15 08:05:13;;;;;;;7.85;1.60;;;;;;;19.73;55.39;101106.78;5017380;28;20133;-83
2021/06/15 08:07:39;;;;;;;9.40;1.70;;;;;;;20.11;55.56;101105.91;5013446;28;20474;-86
2021/06/15 08:10:05;;;;;;;12.88;1.83;;;;;;;20.49;54.27;101111.88;4995362;28;20024;-86
2021/06/15 08:12:30;;;;;;;7.78;1.50;;;;;;;19.90;54.75;101126.22;4998496;28;20022;-86
2021/06/15 08:14:56;;;;;;;8.85;1.77;;;;;;;19.81;54.97;101127.50;4999142;28;20022;-86
2021/06/15 08:17:21;;;;;;;5.43;1.10;;;;;;;19.88;54.88;101123.66;4999028;28;20345;-85
2021/06/15 08:19:46;;;;;;;7.75;1.77;;;;;;;19.32;56.98;101135.03;5016797;28;20037;-85
2021/06/15 08:22:12;;;;;;;7.97;1.60;;;;;;;19.50;56.36;101135.97;4999607;28;20024;-84
2021/06/15 08:24:37;;;;;;;11.80;1.50;;;;;;;19.47;55.15;101144.00;5019198;28;20057;-84
2021/06/15 08:27:03;;;;;;;7.15;1.42;;;;;;;19.40;55.29;101143.44;5017943;28;20029;-83
2021/06/15 08:29:28;;;;;;;8.90;1.30;;;;;;;20.10;52.81;101143.66;5026735;28;20018;-83
2021/06/15 08:31:53;;;;;;;7.70;1.60;;;;;;;19.80;53.86;101130.19;5041752;28;20029;-83
2021/06/15 08:34:19;;;;;;;8.30;1.05;;;;;;;20.10;53.22;101130.50;5015831;28;20033;-84
2021/06/15 08:36:44;;;;;;;8.95;1.65;;;;;;;20.53;52.52;101123.13;4999525;28;20113;-84
2021/06/15 08:39:10;;;;;;;6.28;1.40;;;;;;;20.53;53.76;101123.13;5016455;28;20022;-84
2021/06/15 08:41:36;;;;;;;8.50;1.75;;;;;;;19.47;55.73;101121.16;4998896;28;20417;-84
2021/06/15 08:44:03;;;;;;;9.02;1.85;;;;;;;19.19;56.89;101120.72;4999327;28;20504;-83
2021/06/15 08:46:29;;;;;;;8.43;1.50;;;;;;;18.83;58.79;101121.41;4999982;28;20478;-84
2021/06/15 08:48:56;;;;;;;9.90;1.70;;;;;;;20.31;53.64;101124.19;4999584;28;20018;-84
2021/06/15 08:51:21;;;;;;;6.97;1.20;;;;;;;20.40;52.34;101121.09;4998793;28;20584;-84
2021/06/15 08:53:51;;;;;;;10.55;1.90;;;;;;;18.77;57.22;101126.94;4999534;28;20025;-84
2021/06/15 08:56:21;;;;;;;6.93;1.55;;;;;;;19.92;56.98;101127.84;4998509;28;20022;-84
2021/06/15 08:59:17;;;;;;;7.70;1.80;;;;;;;22.26;49.23;101119.91;5015979;28;20371;-84
2021/06/15 09:01:45;;;;;;;7.45;1.60;;;;;;;23.49;47.10;101119.56;4999255;28;20030;-84
2021/06/15 09:04:10;;;;;;;7.22;1.60;;;;;;;20.54;53.17;101124.88;5015962;28;20022;-84
2021/06/15 09:06:35;;;;;;;10.73;1.80;;;;;;;19.78;54.17;101114.50;5015923;28;20535;-84
2021/06/15 09:09:01;;;;;;;8.07;1.40;;;;;;;18.86;57.34;101123.91;4998208;28;20497;-84
2021/06/15 09:11:46;;;;;;;8.95;1.90;;;;;;;19.10;58.36;101132.50;4998161;28;20018;-84
2021/06/15 09:14:11;;;;;;;7.22;1.20;;;;;;;19.59;54.94;101134.69;4998708;28;20405;-84
2021/06/15 09:16:37;;;;;;;26.88;6.10;;;;;;;21.20;50.64;101132.81;4998933;28;20022;-84
2021/06/15 09:19:18;;;;;;;10.23;1.70;;;;;;;22.58;47.24;101126.88;5015856;28;20152;-84
2021/06/15 09:21:48;;;;;;;11.02;1.60;;;;;;;23.78;44.38;101123.03;4997909;28;20029;-84
2021/06/15 09:24:15;;;;;;;9.15;1.65;;;;;;;21.12;48.22;101132.34;4998590;28;20485;-85
2021/06/15 09:27:05;;;;;;;7.65;1.67;;;;;;;21.13;47.77;101119.09;4998066;28;20030;-84
2021/06/15 09:29:40;;;;;;;7.35;1.30;;;;;;;22.77;45.30;101124.84;5015569;28;20018;-85
2021/06/15 09:32:07;;;;;;;12.10;1.40;;;;;;;19.96;53.09;101132.03;4999161;28;20111;-84
2021/06/15 09:34:33;;;;;;;9.27;1.83;;;;;;;19.32;55.76;101140.28;4997973;28;20064;-84
2021/06/15 09:37:02;;;;;;;8.15;1.70;;;;;;;18.91;55.47;101135.09;4999200;28;20057;-83
2021/06/15 09:39:29;;;;;;;13.98;1.60;;;;;;;21.48;52.66;101140.13;4998395;28;20116;-84
2021/06/15 09:41:55;;;;;;;18.52;5.78;;;;;;;23.05;44.87;101136.41;4998017;28;20025;-85
2021/06/15 09:44:30;;;;;;;13.88;2.42;;;;;;;20.62;48.70;101128.78;4997624;28;20425;-85
2021/06/15 09:46:57;;;;;;;12.18;2.50;;;;;;;22.59;48.65;101134.72;4997565;28;20018;-84
2021/06/15 09:49:37;;;;;;;10.95;2.08;;;;;;;22.59;45.95;101139.16;4998092;28;20038;-84
2021/06/15 09:52:16;;;;;;;7.53;1.48;;;;;;;22.11;46.91;101141.06;5015387;28;20075;-84
2021/06/15 09:54:53;;;;;;;9.55;2.15;;;;;;;20.33;51.49;101130.22;5014992;28;20025;-84
2021/06/15 09:57:27;;;;;;;10.23;1.30;;;;;;;19.68;53.11;101134.28;5000484;28;20030;-82
2021/06/15 10:00:11;;;;;;;7.38;1.55;;;;;;;19.29;55.34;101143.91;5000445;28;20057;-81
2021/06/15 10:02:54;;;;;;;7.25;1.42;;;;;;;19.09;54.67;101154.47;5001206;28;20057;-82
2021/06/15 10:05:28;;;;;;;5.80;1.20;;;;;;;21.51;47.68;101141.75;5001845;28;20036;-82
2021/06/15 10:07:57;;;;;;;5.43;1.05;;;;;;;22.61;46.25;101143.41;5038679;23;20072;-84
2021/06/15 10:10:27;;;;;;;6.60;1.65;;;;;;;21.73;44.49;101131.69;4997101;28;20065;-83
2021/06/15 10:12:53;;;;;;;7.78;1.50;;;;;;;20.82;47.74;101143.59;5014910;28;20072;-84
2021/06/15 10:15:19;;;;;;;9.30;1.52;;;;;;;20.21;50.61;101139.59;4997219;28;20026;-84
2021/06/15 10:17:46;;;;;;;7.15;1.35;;;;;;;19.66;52.62;101147.50;5014665;28;20026;-83
2021/06/15 10:20:23;;;;;;;7.40;1.30;;;;;;;19.55;52.28;101145.34;4997011;28;20022;-83
2021/06/15 10:22:49;;;;;;;6.93;1.40;;;;;;;20.84;48.86;101141.75;4996979;28;20029;-83
2021/06/15 10:25:17;;;;;;;7.53;1.40;;;;;;;21.90;46.03;101145.75;4996850;28;20026;-83
2021/06/15 10:27:44;;;;;;;8.48;1.38;;;;;;;23.15;42.46;101134.91;5014484;28;20034;-83
2021/06/15 10:30:11;;;;;;;7.55;1.48;;;;;;;23.53;40.77;101121.91;5014439;28;20030;-84
2021/06/15 10:32:53;;;;;;;3.97;1.02;;;;;;;23.23;41.89;101124.69;5014384;28;20032;-83
2021/06/15 10:35:34;;;;;;;7.57;1.23;;;;;;;24.45;41.24;101118.59;5014103;28;20477;-83
2021/06/15 10:38:00;;;;;;;5.32;0.90;;;;;;;24.43;39.84;101123.16;4996551;28;20032;-84
2021/06/15 10:40:25;;;;;;;6.80;1.23;;;;;;;24.13;38.17;101118.06;5014259;28;20025;-83
2021/06/15 10:43:12;;;;;;;6.97;1.25;;;;;;;24.99;39.81;101118.41;5014220;28;20022;-84
2021/06/15 10:45:38;;;;;;;7.63;1.15;;;;;;;24.76;39.03;101113.88;5014161;28;20026;-83
2021/06/15 10:48:03;;;;;;;5.32;1.30;;;;;;;23.67;42.11;101113.94;4996539;28;20033;-83
2021/06/15 10:50:44;;;;;;;6.93;1.20;;;;;;;22.61;43.42;101124.91;5014282;28;20033;-85
2021/06/15 10:53:10;;;;;;;6.43;1.05;;;;;;;20.94;46.45;101125.44;4996662;28;20049;-84
2021/06/15 10:55:53;;;;;;;9.55;1.23;;;;;;;23.01;43.23;101119.88;5014044;28;20053;-84
2021/06/15 10:58:38;;;;;;;8.32;1.52;;;;;;;20.96;48.87;101127.03;4996683;28;20026;-84
2021/06/15 11:01:20;;;;;;;7.97;1.20;;;;;;;19.81;51.59;101129.28;5013822;28;20050;-84
2021/06/15 11:03:46;;;;;;;5.80;1.58;;;;;;;19.61;52.60;101127.56;4996317;28;20026;-84
2021/06/15 11:06:12;;;;;;;7.45;1.60;;;;;;;22.07;44.73;101116.56;4996329;28;20108;-84
2021/06/15 11:08:38;;;;;;;4.53;0.90;;;;;;;23.85;40.27;101119.03;4996433;28;20042;-84
2021/06/15 11:11:04;;;;;;;7.38;1.40;;;;;;;22.95;42.76;101122.91;4996226;28;20127;-83
2021/06/15 11:13:53;;;;;;;7.80;1.58;;;;;;;21.05;47.38;101121.28;4996153;28;20030;-83
2021/06/15 11:16:26;;;;;;;6.40;1.30;;;;;;;20.22;47.94;101124.63;4996037;28;20409;-83
2021/06/15 11:19:10;;;;;;;9.02;1.45;;;;;;;23.19;42.37;101124.03;4996185;28;20034;-83
2021/06/15 11:21:46;;;;;;;12.65;2.65;;;;;;;23.72;41.24;101107.53;5013609;28;20026;-84
2021/06/15 11:24:34;;;;;;;9.55;1.70;;;;;;;22.88;41.39;101118.91;5013729;28;20057;-83
2021/06/15 11:27:06;;;;;;;9.35;2.00;;;;;;;24.13;40.47;101112.75;4995996;28;20022;-84
2021/06/15 11:29:38;;;;;;;10.93;1.80;;;;;;;23.67;39.43;101113.09;4996002;28;20026;-84
2021/06/15 11:32:16;;;;;;;7.82;1.58;;;;;;;24.79;38.59;101119.81;5013894;28;20029;-83